Time;durP1;ratioP1;P1;durP2;ratioP2;P2;SDS_P1;SDS_P2;PMS_P1;PMS_P2;Temp;Humidity;BMP_temperature;BMP_pressure;BME280_temperature;BME280_humidity;BME280_pressure;Samples;Min_cycle;Max_cycle;Signal;HPM_P1;HPM_P2
2022/04/09 00:01:28;;;;;;;9.20;4.25;;;0.10;99.90;;;;;;4980824;28;20026;-85
2022/04/09 00:03:54;;;;;;;11.45;5.07;;;0.00;99.90;;;;;;4997083;28;20030;-85
2022/04/09 00:06:20;;;;;;;13.57;5.57;;;0.10;99.90;;;;;;4996560;28;20137;-85
2022/04/09 00:08:46;;;;;;;13.40;5.57;;;0.10;99.90;;;;;;4995691;28;20034;-84
2022/04/09 00:11:12;;;;;;;12.73;5.97;;;0.10;99.90;;;;;;4996196;28;20042;-85
2022/04/09 00:13:38;;;;;;;12.30;6.13;;;0.10;99.90;;;;;;4996436;28;20505;-84
2022/04/09 00:16:04;;;;;;;13.70;6.78;;;0.10;99.90;;;;;;4996361;28;20041;-84
2022/04/09 00:18:30;;;;;;;23.23;8.20;;;0.10;99.90;;;;;;4996297;28;20030;-84
2022/04/09 00:20:55;;;;;;;13.68;6.68;;;0.10;99.90;;;;;;4996659;28;20022;-84
2022/04/09 00:23:23;;;;;;;16.83;7.72;;;0.10;99.90;;;;;;4995438;28;20022;-84
2022/04/09 00:25:49;;;;;;;16.38;8.73;;;0.10;99.90;;;;;;4996162;28;20029;-84
2022/04/09 00:28:15;;;;;;;19.70;8.48;;;0.10;99.90;;;;;;4996002;28;20481;-84
2022/04/09 00:30:41;;;;;;;17.65;8.35;;;0.10;99.90;;;;;;4995718;28;20068;-84
2022/04/09 00:33:07;;;;;;;23.40;8.57;;;0.10;99.90;;;;;;4995964;28;20022;-84
2022/04/09 00:35:33;;;;;;;19.58;8.25;;;0.10;99.90;;;;;;4995571;28;20038;-84
2022/04/09 00:37:59;;;;;;;17.95;8.68;;;0.10;99.90;;;;;;4995829;28;20080;-84
2022/04/09 00:40:26;;;;;;;19.13;9.15;;;0.10;99.90;;;;;;4996479;28;20558;-84
2022/04/09 00:42:52;;;;;;;15.35;7.50;;;0.20;99.90;;;;;;5012389;28;20038;-84
2022/04/09 00:45:17;;;;;;;21.90;9.23;;;0.10;99.90;;;;;;4996004;28;20041;-82
2022/04/09 00:47:43;;;;;;;24.17;10.65;;;0.10;99.90;;;;;;4995693;28;20049;-82
2022/04/09 00:50:10;;;;;;;19.00;9.38;;;0.20;99.90;;;;;;4995967;28;20044;-82
2022/04/09 00:52:47;;;;;;;21.10;10.18;;;0.20;99.90;;;;;;4995928;28;20026;-82
2022/04/09 00:55:16;;;;;;;20.30;10.20;;;0.20;99.90;;;;;;5013804;28;20030;-82
2022/04/09 00:57:46;;;;;;;19.73;10.57;;;0.20;99.90;;;;;;4996026;28;20512;-82
2022/04/09 01:00:13;;;;;;;21.90;11.13;;;0.10;99.90;;;;;;5013564;28;20030;-82
2022/04/09 01:02:41;;;;;;;22.52;11.05;;;0.20;99.90;;;;;;4995465;28;20061;-82
2022/04/09 01:05:07;;;;;;;19.27;9.90;;;0.10;99.90;;;;;;4979164;28;20040;-82
2022/04/09 01:07:34;;;;;;;20.83;10.10;;;0.20;99.90;;;;;;4995593;28;20489;-82
2022/04/09 01:10:00;;;;;;;21.77;10.07;;;0.10;99.90;;;;;;4979507;28;20030;-82
2022/04/09 01:12:28;;;;;;;22.95;10.75;;;0.20;99.90;;;;;;4995606;28;20026;-81
2022/04/09 01:15:15;;;;;;;454.70;33.45;;;0.10;99.90;;;;;;4979381;28;20026;-82
2022/04/09 01:17:41;;;;;;;164.80;19.85;;;0.10;99.90;;;;;;4978933;28;20029;-81
2022/04/09 01:20:20;;;;;;;476.90;36.70;;;0.10;99.90;;;;;;4979404;28;20510;-81
2022/04/09 01:22:49;;;;;;;217.15;24.58;;;0.10;99.90;;;;;;4995556;28;20116;-82
2022/04/09 01:25:15;;;;;;;65.00;16.65;;;0.10;99.90;;;;;;4979848;28;20026;-81
2022/04/09 01:27:43;;;;;;;35.45;14.15;;;0.10;99.90;;;;;;4979575;28;20034;-81
2022/04/09 01:30:10;;;;;;;38.80;15.00;;;0.10;99.90;;;;;;4995310;28;20030;-81
2022/04/09 01:32:36;;;;;;;45.47;17.00;;;0.20;99.90;;;;;;4994804;28;20500;-82
2022/04/09 01:35:03;;;;;;;36.30;15.43;;;0.10;99.90;;;;;;4998651;28;20034;-81
2022/04/09 01:37:31;;;;;;;38.97;16.00;;;0.20;99.90;;;;;;5015842;28;20113;-81
2022/04/09 01:39:58;;;;;;;42.67;15.88;;;0.20;99.90;;;;;;4982980;28;20064;-81
2022/04/09 01:42:26;;;;;;;45.92;16.35;;;0.20;99.90;;;;;;4982340;28;20030;-81
2022/04/09 01:44:53;;;;;;;47.40;17.58;;;0.10;99.90;;;;;;4982994;28;20037;-80
2022/04/09 01:47:19;;;;;;;51.17;17.08;;;0.20;99.90;;;;;;5015011;28;20748;-80
2022/04/09 01:49:45;;;;;;;73.28;18.13;;;0.10;99.90;;;;;;4982608;28;20088;-81
2022/04/09 01:52:11;;;;;;;52.40;18.00;;;0.10;99.90;;;;;;4982930;28;20389;-81
2022/04/09 01:54:38;;;;;;;48.15;17.77;;;0.10;99.90;;;;;;4999101;28;20041;-81
2022/04/09 01:57:05;;;;;;;50.00;17.98;;;0.10;99.90;;;;;;4982662;28;20121;-81
2022/04/09 01:59:31;;;;;;;54.25;17.83;;;0.20;99.90;;;;;;4982270;28;20392;-81
2022/04/09 02:01:58;;;;;;;60.55;20.65;;;0.20;99.90;;;;;;4998524;28;20029;-81
2022/04/09 02:04:24;;;;;;;63.55;20.23;;;0.10;99.90;;;;;;5015946;28;20026;-81
2022/04/09 02:06:50;;;;;;;53.78;18.58;;;0.20;99.90;;;;;;4998408;28;20462;-81
2022/04/09 02:09:16;;;;;;;62.50;20.85;;;0.10;99.90;;;;;;4998464;28;20117;-80
2022/04/09 02:11:43;;;;;;;75.97;22.70;;;0.10;99.90;;;;;;4982413;28;20385;-81
2022/04/09 02:14:10;;;;;;;68.35;23.65;;;0.10;99.90;;;;;;4998666;28;20030;-81
2022/04/09 02:16:38;;;;;;;207.70;29.95;;;0.20;99.90;;;;;;4998202;28;20080;-81
2022/04/09 02:19:04;;;;;;;421.23;45.05;;;0.10;99.90;;;;;;4998120;28;20481;-80
2022/04/09 02:21:30;;;;;;;403.27;44.97;;;0.10;99.90;;;;;;4998652;28;20084;-81
2022/04/09 02:23:57;;;;;;;588.15;51.08;;;0.10;99.90;;;;;;4998489;28;20022;-81
2022/04/09 02:26:22;;;;;;;423.70;51.28;;;0.10;99.90;;;;;;4997907;28;20038;-80
2022/04/09 02:29:26;;;;;;;1054.53;80.88;;;0.10;99.90;;;;;;4997862;28;20034;-80
2022/04/09 02:35:16;;;;;;;348.42;43.35;;;0.10;99.90;;;;;;5030769;28;20127;-80
2022/04/09 02:37:42;;;;;;;893.28;74.78;;;0.10;99.90;;;;;;4997359;28;20034;-80
2022/04/09 02:40:09;;;;;;;697.25;59.13;;;0.10;99.90;;;;;;4998096;28;20084;-80
2022/04/09 02:42:37;;;;;;;403.77;44.63;;;0.10;99.90;;;;;;4982106;28;20437;-80
2022/04/09 02:45:06;;;;;;;494.58;53.42;;;0.10;99.90;;;;;;4997500;28;20413;-81
2022/04/09 02:47:34;;;;;;;266.80;36.38;;;0.10;99.90;;;;;;4981656;28;20033;-80
2022/04/09 02:50:03;;;;;;;142.48;33.15;;;0.10;99.90;;;;;;4997798;28;20405;-80
2022/04/09 02:52:41;;;;;;;169.10;35.78;;;0.10;99.90;;;;;;4997341;28;20137;-80
2022/04/09 02:55:10;;;;;;;358.67;99.90;;;0.10;99.90;;;;;;4997276;28;20030;-80
2022/04/09 02:57:37;;;;;;;124.80;34.10;;;0.10;99.90;;;;;;4981285;28;20061;-80
2022/04/09 03:00:07;;;;;;;118.65;32.75;;;0.10;99.90;;;;;;4997934;28;20087;-81
2022/04/09 03:02:38;;;;;;;130.00;35.08;;;0.10;99.90;;;;;;4981718;28;20026;-80
2022/04/09 03:05:06;;;;;;;127.25;34.65;;;0.10;99.90;;;;;;4997691;28;20034;-81
2022/04/09 03:07:32;;;;;;;120.90;31.08;;;0.10;99.90;;;;;;4997564;28;20068;-81
2022/04/09 03:09:58;;;;;;;120.78;33.00;;;0.10;99.90;;;;;;5015349;28;20511;-81
2022/04/09 03:12:23;;;;;;;127.97;35.80;;;0.10;99.90;;;;;;5015203;28;20026;-81
2022/04/09 03:14:49;;;;;;;141.80;37.17;;;0.20;99.90;;;;;;4997456;28;20030;-81
2022/04/09 03:17:15;;;;;;;131.77;38.55;;;0.20;99.90;;;;;;4981615;28;20033;-80
2022/04/09 03:19:41;;;;;;;127.55;42.53;;;0.20;99.90;;;;;;4981633;28;20029;-81
2022/04/09 03:22:09;;;;;;;141.52;42.60;;;0.20;99.90;;;;;;4996668;28;20445;-81
2022/04/09 03:24:59;;;;;;;153.30;47.30;;;0.20;99.90;;;;;;4997100;28;20500;-80
2022/04/09 03:27:27;;;;;;;130.68;43.40;;;0.20;99.90;;;;;;4996721;28;20030;-81
2022/04/09 03:29:55;;;;;;;133.30;42.15;;;0.20;99.90;;;;;;4996605;28;20026;-81
2022/04/09 03:32:22;;;;;;;135.25;43.47;;;0.20;99.90;;;;;;4996933;28;20084;-81
2022/04/09 03:34:49;;;;;;;147.27;46.53;;;0.20;99.90;;;;;;4996898;28;20102;-80
2022/04/09 03:37:15;;;;;;;131.95;45.03;;;0.20;99.90;;;;;;4996639;28;20030;-81
2022/04/09 03:39:43;;;;;;;173.25;50.95;;;0.20;99.90;;;;;;4996800;28;20038;-80
2022/04/09 03:42:10;;;;;;;160.32;48.08;;;0.20;99.90;;;;;;4980520;28;20030;-81
2022/04/09 03:44:39;;;;;;;170.07;50.47;;;0.20;99.90;;;;;;4996306;28;20072;-80
2022/04/09 03:47:05;;;;;;;167.15;49.10;;;0.20;99.90;;;;;;4996177;28;20038;-80
2022/04/09 03:49:35;;;;;;;208.13;61.60;;;0.20;99.90;;;;;;4980820;28;20412;-81
2022/04/09 03:52:01;;;;;;;276.67;83.28;;;0.20;99.90;;;;;;4996514;28;20456;-80
2022/04/09 03:54:30;;;;;;;202.23;57.78;;;0.20;99.90;;;;;;4996590;28;20076;-80
2022/04/09 03:56:57;;;;;;;205.68;55.67;;;0.20;99.90;;;;;;4979902;28;20026;-80
2022/04/09 03:59:31;;;;;;;199.38;54.53;;;0.20;99.90;;;;;;4995801;28;20065;-80
2022/04/09 04:01:57;;;;;;;201.15;55.22;;;0.20;99.90;;;;;;4996189;28;20878;-80
2022/04/09 04:04:23;;;;;;;181.05;54.50;;;0.20;99.90;;;;;;5029145;28;20033;-80
2022/04/09 04:06:51;;;;;;;190.55;54.13;;;0.20;99.90;;;;;;4980883;28;20040;-80
2022/04/09 04:09:17;;;;;;;185.38;54.60;;;0.20;99.90;;;;;;4996289;28;20462;-80
2022/04/09 04:11:48;;;;;;;183.93;54.33;;;0.20;99.90;;;;;;4996625;28;20022;-81
2022/04/09 04:14:14;;;;;;;193.60;53.20;;;0.20;99.90;;;;;;4980215;28;20425;-80
2022/04/09 04:16:40;;;;;;;190.73;55.08;;;0.20;99.90;;;;;;4979471;28;20026;-80
2022/04/09 04:19:06;;;;;;;193.13;55.13;;;0.20;99.90;;;;;;4979538;28;20026;-80
2022/04/09 04:21:33;;;;;;;179.60;53.35;;;0.20;99.90;;;;;;4996216;28;20069;-80
2022/04/09 04:24:04;;;;;;;170.65;50.78;;;0.20;99.90;;;;;;4980576;28;20171;-80
2022/04/09 04:26:30;;;;;;;185.88;53.10;;;0.20;99.90;;;;;;5028840;28;20477;-80
2022/04/09 04:29:01;;;;;;;187.70;53.95;;;0.20;99.90;;;;;;4995836;28;20037;-80
2022/04/09 04:31:29;;;;;;;186.00;53.05;;;0.20;99.90;;;;;;4995479;28;20037;-80
2022/04/09 04:33:55;;;;;;;177.80;52.20;;;0.20;99.90;;;;;;4995761;28;20030;-80
2022/04/09 04:36:21;;;;;;;190.23;51.67;;;0.10;99.90;;;;;;4995470;28;20030;-80
2022/04/09 04:38:47;;;;;;;202.63;52.65;;;0.10;99.90;;;;;;4995602;28;20025;-80
2022/04/09 04:41:13;;;;;;;177.65;51.75;;;0.10;99.90;;;;;;4978122;28;20517;-80
2022/04/09 04:43:40;;;;;;;171.38;49.03;;;0.10;99.90;;;;;;4996054;28;20030;-80
2022/04/09 04:46:07;;;;;;;186.25;52.22;;;0.20;99.90;;;;;;4995435;28;20041;-80
2022/04/09 04:48:34;;;;;;;181.48;50.45;;;0.20;99.90;;;;;;4977673;28;20038;-80
2022/04/09 04:51:03;;;;;;;171.52;48.55;;;0.20;99.90;;;;;;4979852;28;20759;-80
2022/04/09 04:53:31;;;;;;;174.68;50.80;;;0.20;99.90;;;;;;4996409;28;20029;-80
2022/04/09 04:56:00;;;;;;;171.93;49.95;;;0.20;99.90;;;;;;4994408;28;20116;-80
2022/04/09 04:58:34;;;;;;;185.00;51.13;;;0.20;99.90;;;;;;4995570;28;20131;-80
2022/04/09 05:01:03;;;;;;;163.18;47.85;;;0.20;99.90;;;;;;4995907;28;20033;-82
2022/04/09 05:03:30;;;;;;;190.60;50.88;;;0.20;99.90;;;;;;4995597;28;20025;-81
2022/04/09 05:06:17;;;;;;;166.77;48.75;;;0.20;99.90;;;;;;4982065;28;20030;-81
2022/04/09 05:08:44;;;;;;;187.35;56.55;;;0.20;99.90;;;;;;4994667;28;20084;-81
2022/04/09 05:11:15;;;;;;;174.25;51.00;;;0.20;99.90;;;;;;4994723;28;20087;-81
2022/04/09 05:13:41;;;;;;;183.80;51.08;;;0.20;99.90;;;;;;4978248;28;20124;-81
2022/04/09 05:16:09;;;;;;;161.52;47.38;;;0.20;99.90;;;;;;4978774;28;20022;-81
2022/04/09 05:18:41;;;;;;;193.80;52.28;;;0.20;99.90;;;;;;4994907;28;20189;-81
2022/04/09 05:21:07;;;;;;;163.65;49.17;;;0.20;99.90;;;;;;4994567;28;20026;-81
2022/04/09 05:23:33;;;;;;;175.10;49.67;;;0.20;99.90;;;;;;4992876;28;20120;-81
2022/04/09 05:26:00;;;;;;;161.27;45.30;;;0.30;99.90;;;;;;4992656;28;20029;-81
2022/04/09 05:28:26;;;;;;;141.57;46.03;;;0.30;99.90;;;;;;4994472;28;20026;-81
2022/04/09 05:30:51;;;;;;;157.05;42.75;;;0.30;99.90;;;;;;5012817;28;20831;-81
2022/04/09 05:33:20;;;;;;;138.50;43.63;;;0.30;99.90;;;;;;4978666;28;20105;-81
2022/04/09 05:39:21;;;;;;;113.07;35.80;;;0.40;99.90;;;;;;5026788;28;20096;-80
2022/04/09 05:41:48;;;;;;;117.10;38.03;;;0.40;99.90;;;;;;4994245;28;20493;-81
2022/04/09 05:44:14;;;;;;;122.40;35.80;;;0.40;99.90;;;;;;5011328;28;20084;-81
2022/04/09 05:46:40;;;;;;;124.05;36.25;;;0.30;99.90;;;;;;4993008;28;20034;-81
2022/04/09 05:49:08;;;;;;;115.95;35.90;;;0.30;99.90;;;;;;4992697;28;20033;-81
2022/04/09 05:51:36;;;;;;;96.50;32.50;;;0.30;99.90;;;;;;4978828;28;20034;-81
2022/04/09 05:54:04;;;;;;;97.03;33.00;;;0.30;99.90;;;;;;4994548;28;20477;-81
2022/04/09 05:56:34;;;;;;;91.40;32.90;;;0.40;99.90;;;;;;4973727;28;20022;-81
2022/04/09 05:58:59;;;;;;;101.10;33.45;;;0.40;99.90;;;;;;4993953;28;20177;-81
2022/04/09 06:01:25;;;;;;;107.82;32.25;;;0.40;99.90;;;;;;4994117;28;20042;-81
2022/04/09 06:03:51;;;;;;;100.82;32.10;;;0.40;99.90;;;;;;4993496;28;20026;-81
2022/04/09 06:06:17;;;;;;;98.68;31.40;;;0.40;99.90;;;;;;4993870;28;20041;-81
2022/04/09 06:08:49;;;;;;;91.28;29.98;;;0.50;99.90;;;;;;4993639;28;20034;-80
2022/04/09 06:11:29;;;;;;;72.55;27.15;;;0.50;99.90;;;;;;4980107;28;20025;-80
2022/04/09 06:14:01;;;;;;;75.43;27.48;;;0.50;99.90;;;;;;4994736;28;20029;-80
2022/04/09 06:16:27;;;;;;;72.30;28.15;;;0.50;99.90;;;;;;4978656;28;20119;-80
2022/04/09 06:18:55;;;;;;;78.07;26.48;;;0.50;99.90;;;;;;4994798;28;20025;-80
2022/04/09 06:21:21;;;;;;;68.32;27.40;;;0.50;99.90;;;;;;4996094;28;20060;-80
2022/04/09 06:23:47;;;;;;;72.53;28.13;;;0.50;99.90;;;;;;4995173;28;20037;-80
2022/04/09 06:26:13;;;;;;;72.70;26.15;;;0.50;99.90;;;;;;4998589;28;20041;-80
2022/04/09 06:28:39;;;;;;;73.95;29.02;;;0.50;99.90;;;;;;4998271;28;20033;-80
2022/04/09 06:31:05;;;;;;;76.15;27.40;;;0.60;99.90;;;;;;4998175;28;20030;-81
2022/04/09 06:33:34;;;;;;;71.80;26.08;;;0.70;99.90;;;;;;4994118;28;20026;-81
2022/04/09 06:36:04;;;;;;;71.82;26.05;;;0.70;99.90;;;;;;4998022;28;20034;-80
2022/04/09 06:38:31;;;;;;;63.78;26.77;;;0.60;99.90;;;;;;5014851;28;20113;-81
2022/04/09 06:40:59;;;;;;;61.85;26.15;;;0.60;99.90;;;;;;4997483;28;20048;-82
2022/04/09 06:43:34;;;;;;;59.72;24.40;;;0.70;99.90;;;;;;5026008;28;20014;-83
2022/04/09 06:46:03;;;;;;;71.53;25.70;;;0.70;99.90;;;;;;4998174;28;20026;-83
2022/04/09 06:48:54;;;;;;;;;;;0.80;99.90;;;;;;4993462;28;20038;-83
2022/04/09 06:51:44;;;;;;;62.38;23.27;;;0.80;99.90;;;;;;5001382;28;19910;-84
2022/04/09 06:54:36;;;;;;;81.00;32.83;;;0.80;99.90;;;;;;4986878;28;20034;-84
2022/04/09 06:57:02;;;;;;;62.53;24.83;;;0.80;99.90;;;;;;4997798;28;20079;-84
2022/04/09 06:59:34;;;;;;;59.45;26.15;;;0.90;99.90;;;;;;4997440;28;20057;-83
2022/04/09 07:01:59;;;;;;;71.10;25.35;;;1.00;99.90;;;;;;4977447;28;20065;-83
2022/04/09 07:04:25;;;;;;;60.10;26.90;;;1.00;99.90;;;;;;4997565;28;20116;-83
2022/04/09 07:06:51;;;;;;;54.10;23.88;;;1.00;99.90;;;;;;4998027;28;20091;-84
2022/04/09 07:09:16;;;;;;;70.95;26.08;;;1.00;99.90;;;;;;4997454;28;20073;-83
2022/04/09 07:11:42;;;;;;;58.65;24.13;;;1.10;99.90;;;;;;4997343;28;20030;-83
2022/04/09 07:14:08;;;;;;;47.53;22.00;;;1.20;99.90;;;;;;4997419;28;20598;-83
2022/04/09 07:16:33;;;;;;;45.53;21.48;;;1.30;99.90;;;;;;4997270;28;20041;-83
2022/04/09 07:19:01;;;;;;;52.30;22.08;;;1.20;99.90;;;;;;4997597;28;20030;-82
2022/04/09 07:21:27;;;;;;;52.03;23.10;;;1.30;99.90;;;;;;4997353;28;20037;-81
2022/04/09 07:23:53;;;;;;;58.60;23.42;;;1.30;99.90;;;;;;4992174;28;20370;-81
2022/04/09 07:26:20;;;;;;;50.70;22.02;;;1.40;99.90;;;;;;4997260;28;20033;-81
2022/04/09 07:28:46;;;;;;;46.85;20.80;;;1.50;99.90;;;;;;4996188;28;20706;-81
2022/04/09 07:31:12;;;;;;;51.47;20.13;;;1.40;99.90;;;;;;4996741;28;20025;-81
2022/04/09 07:33:38;;;;;;;40.30;22.15;;;1.50;99.90;;;;;;5014329;28;20381;-81
2022/04/09 07:36:04;;;;;;;49.20;20.17;;;1.60;99.90;;;;;;4996757;28;20033;-81
2022/04/09 07:38:30;;;;;;;43.47;18.90;;;1.70;99.90;;;;;;4996987;28;20037;-83
2022/04/09 07:40:56;;;;;;;47.78;20.40;;;1.80;99.90;;;;;;4996907;28;20030;-82
2022/04/09 07:43:21;;;;;;;38.03;18.63;;;1.90;99.90;;;;;;5014710;28;20022;-84
2022/04/09 07:45:47;;;;;;;32.80;17.27;;;2.00;99.90;;;;;;4997367;28;20032;-85
2022/04/09 07:48:13;;;;;;;41.67;18.17;;;2.10;99.90;;;;;;4997436;28;20034;-86
2022/04/09 07:50:39;;;;;;;34.08;21.27;;;2.10;99.90;;;;;;4980993;28;20120;-86
2022/04/09 07:53:07;;;;;;;559.60;221.65;;;2.20;99.90;;;;;;4981305;28;20173;-88
2022/04/09 07:55:33;;;;;;;65.32;28.58;;;2.60;99.90;;;;;;4998882;28;20041;-88
2022/04/09 07:58:30;;;;;;;30.00;13.05;;;3.20;99.90;;;;;;4980881;28;20026;-88
2022/04/09 08:00:56;;;;;;;21.17;10.68;;;3.80;99.90;;;;;;4997736;28;20042;-89
2022/04/09 08:03:28;;;;;;;28.35;10.85;;;3.80;99.90;;;;;;4999734;28;20382;-89
2022/04/09 08:05:53;;;;;;;21.23;10.95;;;3.80;99.90;;;;;;4993082;28;76183;-90
2022/04/09 08:08:19;;;;;;;20.00;10.15;;;4.00;99.90;;;;;;4994385;28;73195;-89
2022/04/09 08:10:45;;;;;;;24.88;11.35;;;4.10;99.90;;;;;;5014753;28;20041;-90
2022/04/09 08:13:11;;;;;;;20.65;10.25;;;4.10;99.90;;;;;;5014661;28;20611;-88
2022/04/09 08:15:37;;;;;;;18.35;10.40;;;4.20;99.90;;;;;;4998137;28;20036;-88
2022/04/09 08:18:04;;;;;;;19.05;9.95;;;4.20;99.90;;;;;;4997904;28;20022;-89
2022/04/09 08:20:30;;;;;;;17.88;10.52;;;4.70;99.90;;;;;;4998553;28;20034;-88
2022/04/09 08:22:56;;;;;;;23.48;11.07;;;4.80;99.90;;;;;;5016120;28;20110;-89
2022/04/09 08:25:22;;;;;;;22.02;10.70;;;4.90;99.90;;;;;;5017919;28;20124;-88
2022/04/09 08:27:51;;;;;;;21.65;11.18;;;5.10;99.90;;;;;;5018475;28;20036;-87
2022/04/09 08:30:43;;;;;;;20.30;9.95;;;5.40;99.90;;;;;;5032284;28;20486;-87
2022/04/09 08:33:10;;;;;;;;;;;5.50;99.90;;;;;;5031835;28;20129;-88
2022/04/09 08:35:36;;;;;;;20.58;10.15;;;5.80;99.90;;;;;;5014138;28;19909;-86
2022/04/09 08:38:03;;;;;;;24.08;9.52;;;5.90;99.90;;;;;;4999343;28;20092;-88
2022/04/09 08:40:32;;;;;;;18.73;9.45;;;5.90;99.90;;;;;;5032628;28;20030;-88
2022/04/09 08:42:58;;;;;;;21.15;9.50;;;5.90;99.90;;;;;;5015628;28;20386;-87
2022/04/09 08:45:24;;;;;;;26.05;9.00;;;6.10;99.90;;;;;;5015406;28;20030;-89
2022/04/09 08:47:50;;;;;;;23.08;10.40;;;6.00;99.90;;;;;;5016617;28;20564;-91
2022/04/09 08:50:19;;;;;;;19.05;9.60;;;6.00;99.90;;;;;;5005368;28;20374;-90
2022/04/09 08:52:45;;;;;;;27.40;12.32;;;6.10;99.90;;;;;;5019661;28;20100;-89
2022/04/09 08:55:13;;;;;;;25.85;12.65;;;5.50;99.90;;;;;;5002156;28;20385;-92
2022/04/09 08:57:40;;;;;;;24.75;10.85;;;5.80;99.90;;;;;;5018942;28;20029;-91
2022/04/09 09:00:07;;;;;;;27.30;12.63;;;5.80;99.90;;;;;;5017104;28;20030;-90
2022/04/09 09:02:36;;;;;;;19.73;10.35;;;5.50;99.90;;;;;;4998678;28;20041;-90
2022/04/09 09:05:03;;;;;;;26.65;11.18;;;5.60;99.90;;;;;;5015161;28;20149;-90
2022/04/09 09:07:29;;;;;;;17.85;9.65;;;5.60;99.90;;;;;;5002389;28;20605;-89
2022/04/09 09:10:15;;;;;;;28.20;10.57;;;5.40;99.90;;;;;;5017509;28;20077;-90
2022/04/09 09:16:30;;;;;;;21.67;10.48;;;4.90;99.90;;;;;;5015838;28;20124;-90
2022/04/09 09:19:03;;;;;;;31.35;11.60;;;4.90;99.90;;;;;;4997635;28;20437;-92
2022/04/09 09:21:29;;;;;;;22.83;9.50;;;5.20;99.90;;;;;;4998400;28;20060;-90
2022/04/09 09:24:07;;;;;;;23.85;10.88;;;5.60;99.90;;;;;;5014596;28;20014;-90
2022/04/09 09:26:39;;;;;;;26.45;10.95;;;5.60;99.90;;;;;;5014866;28;20113;-90
2022/04/09 09:29:06;;;;;;;25.92;9.48;;;5.80;99.90;;;;;;4997815;28;20042;-89
2022/04/09 09:31:45;;;;;;;21.27;9.55;;;6.30;99.90;;;;;;5011066;28;20626;-89
2022/04/09 09:34:16;;;;;;;18.45;8.88;;;6.70;99.90;;;;;;5014614;28;20045;-91
2022/04/09 10:38:29;;;;;;;17.48;6.10;;;8.60;99.90;;;;;;5017855;28;20118;-92
2022/04/09 10:40:57;;;;;;;12.50;4.93;;;8.20;99.90;;;;;;4998990;28;20034;-93
2022/04/09 10:43:23;;;;;;;16.92;7.75;;;7.50;99.90;;;;;;5017594;28;20033;-92
2022/04/09 10:48:35;;;;;;;19.20;5.47;;;7.60;99.90;;;;;;5053137;28;20030;-92
2022/04/09 10:51:08;;;;;;;11.88;4.90;;;8.00;99.90;;;;;;5020180;28;20120;-93
2022/04/09 10:53:49;;;;;;;14.80;5.15;;;7.80;99.90;;;;;;5037981;28;20030;-93
2022/04/09 10:56:24;;;;;;;15.15;6.38;;;8.10;99.90;;;;;;5020041;28;20025;-93
2022/04/09 10:59:08;;;;;;;14.95;4.72;;;8.20;99.90;;;;;;5020180;28;20060;-94
2022/04/09 11:01:46;;;;;;;15.32;4.60;;;8.90;99.90;;;;;;5036601;28;20051;-93
2022/04/09 11:07:19;;;;;;;21.52;5.47;;;8.70;99.90;;;;;;5037545;28;20499;-93
2022/04/09 11:09:54;;;;;;;14.43;6.15;;;8.50;99.90;;;;;;5035571;28;20076;-92
2022/04/09 11:12:39;;;;;;;13.55;5.07;;;8.20;99.90;;;;;;5035148;28;20030;-92
2022/04/09 11:15:10;;;;;;;12.65;4.28;;;8.60;99.90;;;;;;5050170;28;20060;-92
2022/04/09 11:17:38;;;;;;;14.68;4.25;;;9.80;99.90;;;;;;5019060;28;20037;-93
2022/04/09 11:20:03;;;;;;;10.38;4.35;;;9.80;99.90;;;;;;5017797;28;20056;-91
2022/04/09 11:22:34;;;;;;;21.45;5.85;;;8.90;99.90;;;;;;5048656;28;20038;-92
2022/04/09 11:25:01;;;;;;;64.50;33.17;;;8.40;99.90;;;;;;5036182;28;20037;-92
2022/04/09 11:27:27;;;;;;;267.77;111.88;;;8.10;99.90;;;;;;5035516;28;20025;-92
2022/04/09 11:29:55;;;;;;;21.63;6.35;;;8.20;99.90;;;;;;5017868;28;20044;-92
2022/04/09 11:32:21;;;;;;;12.23;5.45;;;8.70;99.90;;;;;;5018022;28;20762;-89
2022/04/09 11:34:46;;;;;;;18.73;6.32;;;9.30;99.90;;;;;;5013838;28;20124;-89
2022/04/09 11:37:13;;;;;;;14.73;6.93;;;9.60;99.90;;;;;;5031297;28;20121;-91
2022/04/09 11:39:40;;;;;;;14.63;5.32;;;8.90;99.90;;;;;;5016731;28;20069;-91
2022/04/09 11:42:07;;;;;;;16.27;5.20;;;8.60;99.90;;;;;;5017790;28;20127;-89
2022/04/09 11:44:33;;;;;;;13.95;4.90;;;8.70;99.90;;;;;;5034045;28;20037;-91
2022/04/09 11:47:14;;;;;;;12.38;5.50;;;9.40;99.90;;;;;;5035273;28;20028;-91
2022/04/09 11:49:41;;;;;;;9.85;4.45;;;9.80;99.90;;;;;;5017737;28;20041;-90
2022/04/09 11:52:08;;;;;;;18.83;7.00;;;9.00;99.90;;;;;;5017868;28;20713;-90
2022/04/09 11:54:36;;;;;;;17.60;7.82;;;8.70;99.90;;;;;;5017823;28;20021;-90
2022/04/09 11:57:03;;;;;;;14.00;5.45;;;9.70;99.90;;;;;;5033792;28;20026;-89
2022/04/09 11:59:30;;;;;;;13.23;5.07;;;10.10;99.90;;;;;;5017331;28;20026;-89
2022/04/09 12:01:57;;;;;;;14.50;4.15;;;10.50;99.90;;;;;;5017807;28;20087;-90
2022/04/09 12:04:23;;;;;;;13.32;5.03;;;10.60;99.90;;;;;;5016960;28;20038;-89
2022/04/09 12:06:50;;;;;;;14.57;4.72;;;10.30;99.90;;;;;;5032224;28;20084;-90
2022/04/09 12:09:16;;;;;;;11.18;3.55;;;10.50;99.90;;;;;;5015678;28;20044;-90
2022/04/09 12:11:43;;;;;;;14.18;4.57;;;11.00;99.90;;;;;;5017544;28;20473;-89
2022/04/09 12:14:10;;;;;;;13.73;4.45;;;11.60;99.90;;;;;;5035160;28;20029;-90
2022/04/09 12:16:39;;;;;;;16.33;5.88;;;11.30;99.90;;;;;;5050215;28;20116;-90
2022/04/09 12:19:06;;;;;;;14.50;4.07;;;11.40;99.90;;;;;;5015811;28;20033;-90
2022/04/09 12:21:32;;;;;;;18.38;5.05;;;11.00;99.90;;;;;;5017076;28;20389;-89
2022/04/09 12:24:07;;;;;;;17.38;5.47;;;10.50;99.90;;;;;;5017132;28;20092;-90
2022/04/09 12:26:44;;;;;;;14.18;4.70;;;10.60;99.90;;;;;;5016831;28;20021;-91
2022/04/09 12:29:17;;;;;;;8.70;3.55;;;10.20;99.90;;;;;;5016609;28;20037;-91
2022/04/09 12:31:47;;;;;;;11.88;3.55;;;9.00;99.90;;;;;;5017454;28;20040;-90
2022/04/09 12:34:13;;;;;;;12.32;5.13;;;8.20;99.90;;;;;;5015919;28;20037;-91
2022/04/09 12:37:06;;;;;;;17.40;5.75;;;7.70;99.90;;;;;;5012208;28;20022;-92
2022/04/09 12:39:33;;;;;;;12.60;4.13;;;7.20;99.90;;;;;;5016695;28;20492;-91
2022/04/09 12:42:00;;;;;;;16.23;5.30;;;7.40;99.90;;;;;;5016759;28;20041;-90
2022/04/09 12:44:27;;;;;;;21.13;4.85;;;8.00;99.90;;;;;;5032971;28;20079;-91
2022/04/09 12:46:53;;;;;;;16.95;4.90;;;7.90;99.90;;;;;;5016889;28;20432;-91
2022/04/09 12:49:24;;;;;;;11.38;4.32;;;8.10;99.90;;;;;;5016575;28;20022;-91
2022/04/09 12:51:52;;;;;;;10.20;4.13;;;8.30;99.90;;;;;;5015867;28;20088;-92
2022/04/09 12:54:18;;;;;;;12.35;3.67;;;8.40;99.90;;;;;;5015057;28;20026;-90
2022/04/09 12:56:44;;;;;;;15.38;3.08;;;8.60;99.90;;;;;;5014041;28;20037;-90
2022/04/09 12:59:10;;;;;;;7.30;3.13;;;8.90;99.90;;;;;;5015919;28;20030;-91
2022/04/09 13:01:36;;;;;;;18.00;7.80;;;9.30;99.90;;;;;;5016669;28;20393;-90
2022/04/09 13:04:02;;;;;;;11.82;3.50;;;9.10;99.90;;;;;;5034033;28;20105;-91
2022/04/09 13:06:28;;;;;;;21.40;7.72;;;8.60;99.90;;;;;;5015944;28;20547;-91
2022/04/09 13:08:54;;;;;;;14.87;7.50;;;8.70;99.90;;;;;;5016631;28;20485;-90
2022/04/09 13:11:20;;;;;;;20.15;6.38;;;8.70;99.90;;;;;;5017184;28;20119;-90
2022/04/09 13:13:47;;;;;;;13.68;4.55;;;8.80;99.90;;;;;;5049958;28;20029;-91
2022/04/09 13:16:13;;;;;;;17.42;3.45;;;8.80;99.90;;;;;;5016539;28;20030;-88
2022/04/09 13:18:40;;;;;;;9.25;5.10;;;8.50;99.90;;;;;;5016202;28;20022;-90
2022/04/09 13:21:06;;;;;;;14.00;4.70;;;8.60;99.90;;;;;;5017103;28;20041;-91
2022/04/09 13:23:32;;;;;;;14.10;5.75;;;8.40;99.90;;;;;;5016307;28;20057;-90
2022/04/09 13:25:58;;;;;;;10.20;4.30;;;8.80;99.90;;;;;;5016797;28;20076;-92
2022/04/09 13:28:29;;;;;;;15.23;4.05;;;8.80;99.90;;;;;;5016533;28;20038;-93
2022/04/09 13:30:55;;;;;;;10.07;4.38;;;8.40;99.90;;;;;;5036117;28;20033;-91
2022/04/09 13:33:20;;;;;;;13.35;5.25;;;7.60;99.90;;;;;;5020182;28;20393;-92
2022/04/09 13:35:46;;;;;;;9.50;3.53;;;7.10;99.90;;;;;;5013792;28;20025;-91
2022/04/09 13:38:14;;;;;;;11.63;2.80;;;6.90;99.90;;;;;;5019063;28;20092;-91
2022/04/09 13:40:41;;;;;;;13.30;3.45;;;6.90;99.90;;;;;;5019364;28;20119;-91
2022/04/09 13:43:06;;;;;;;24.40;4.78;;;7.00;99.90;;;;;;5019353;28;20040;-92
2022/04/09 13:45:32;;;;;;;11.15;3.50;;;7.30;99.90;;;;;;5019816;28;20373;-91
2022/04/09 13:47:58;;;;;;;7.72;3.00;;;7.70;99.90;;;;;;5019248;28;20081;-91
2022/04/09 13:50:23;;;;;;;12.68;4.55;;;7.80;99.90;;;;;;5019366;28;20496;-91
2022/04/09 13:52:50;;;;;;;14.00;2.72;;;7.80;99.90;;;;;;5019875;28;20076;-92
2022/04/09 13:55:15;;;;;;;7.10;3.75;;;7.40;99.90;;;;;;5019671;28;20041;-91
2022/04/09 13:57:41;;;;;;;9.68;2.83;;;6.90;99.90;;;;;;5019420;28;20037;-92
2022/04/09 14:00:08;;;;;;;11.55;3.15;;;6.60;99.90;;;;;;5019123;28;20128;-91
2022/04/09 14:02:34;;;;;;;9.02;3.08;;;6.40;99.90;;;;;;5019048;28;20033;-91